Lincoln Fly Road

*Note: All times are displayed in the local standard time of the station location.
**Rain - Equipment is designed to accurately record liquid precipitation; under conditions when precipitation is not in liquid form, the data displayed may not properly reflect rainfall values.

Date Max Temp
(°C)
Min Temp
(°C)
Avg Temp
(°C)
Rain (mm) Avg RH (%)
Thu, Dec 13, 2018 5.6 -1.5 0.9 1.0 85.1
Wed, Dec 12, 2018 1.0 -6.3 -1.8 0.0 80.9
Tue, Dec 11, 2018 -1.1 -2.8 -1.9 0.0 77.0
Mon, Dec 10, 2018 0.1 -3.3 -1.5 0.0 75.5
Sun, Dec 09, 2018 0.6 -7.5 -3.5 0.0 68.0
Sat, Dec 08, 2018 -1.0 -7.1 -4.1 0.0 70.2
Fri, Dec 07, 2018 -3.4 -6.6 -5.1 0.0 67.1
DateTime Avg Temp (°C) Rain (mm) RH (%)
Fri, Dec 14, 2018 22:00 4.3 0.0 75.9
Fri, Dec 14, 2018 21:00 3.7 0.0 77.6
Fri, Dec 14, 2018 20:00 3.8 0.0 76.6
Fri, Dec 14, 2018 19:00 3.5 0.0 76.7
Fri, Dec 14, 2018 18:00 3.9 0.0 72.7
Fri, Dec 14, 2018 17:00 4.8 0.0 70.2
Fri, Dec 14, 2018 16:00 5.5 0.0 69.5
Fri, Dec 14, 2018 15:00 5.0 0.0 76.5
Fri, Dec 14, 2018 14:00 4.6 0.0 79.8
Fri, Dec 14, 2018 13:00 4.0 0.0 80.7
Fri, Dec 14, 2018 12:00 3.6 0.2 83.4
Fri, Dec 14, 2018 11:00 3.2 1.4 84.7
Fri, Dec 14, 2018 10:00 3.2 0.6 81.3
Fri, Dec 14, 2018 09:00 3.2 0.0 78.2
Fri, Dec 14, 2018 08:00 2.7 0.0 79.8
Fri, Dec 14, 2018 07:00 2.3 0.0 80.5
Fri, Dec 14, 2018 06:00 1.8 0.0 81.7
Fri, Dec 14, 2018 05:00 1.4 0.0 82.8
Fri, Dec 14, 2018 04:00 1.3 0.0 82.0
Fri, Dec 14, 2018 03:00 1.0 0.0 84.4
Fri, Dec 14, 2018 02:00 1.4 0.0 83.7
Fri, Dec 14, 2018 01:00 0.7 0.0 84.3
Fri, Dec 14, 2018 00:00 0.4 0.0 83.8
Thu, Dec 13, 2018 23:00 1.2 0.0 80.5
Thu, Dec 13, 2018 22:00 1.1 0.0 80.7
Thu, Dec 13, 2018 21:00 0.8 0.0 84.4
Thu, Dec 13, 2018 20:00 0.7 0.0 86.9
Thu, Dec 13, 2018 19:00 1.0 0.0 86.5
Thu, Dec 13, 2018 18:00 1.3 0.0 85.7
Thu, Dec 13, 2018 17:00 1.4 0.0 85.4
Thu, Dec 13, 2018 16:00 2.3 0.0 82.6
Thu, Dec 13, 2018 15:00 2.6 0.0 81.2
Thu, Dec 13, 2018 14:00 5.1 0.0 69.7
Thu, Dec 13, 2018 13:00 4.5 0.0 72.4
Thu, Dec 13, 2018 12:00 2.9 0.0 78.8
Thu, Dec 13, 2018 11:00 1.5 0.2 84.7
Thu, Dec 13, 2018 10:00 1.0 0.4 86.8
Thu, Dec 13, 2018 09:00 0.2 0.2 89.7
Thu, Dec 13, 2018 08:00 0.8 0.2 88.1
Thu, Dec 13, 2018 07:00 -0.1 0.0 90.2
Thu, Dec 13, 2018 06:00 -1.2 0.0 91.9
Thu, Dec 13, 2018 05:00 -1.1 0.0 91.6
Thu, Dec 13, 2018 04:00 -1.4 0.0 91.3
Thu, Dec 13, 2018 03:00 -1.2 0.0 90.7
Thu, Dec 13, 2018 02:00 -1.2 0.0 90.3
Thu, Dec 13, 2018 01:00 -1.2 0.0 88.3
Thu, Dec 13, 2018 00:00 -0.6 0.0 78.8
Wed, Dec 12, 2018 23:00 -0.5 0.0 74.5


asterix Register now to access more data! asterix